sensor_id;sensor_type;location;lat;lon;timestamp;P1;durP1;ratioP1;P2;durP2;ratioP2
10945;SDS011;5525;42.648;23.368;2022-10-16T00:00:45;13.30;;;9.02;;
10945;SDS011;5525;42.648;23.368;2022-10-16T00:03:13;15.27;;;8.88;;
10945;SDS011;5525;42.648;23.368;2022-10-16T00:05:41;12.52;;;10.32;;
10945;SDS011;5525;42.648;23.368;2022-10-16T00:08:10;14.40;;;9.95;;
10945;SDS011;5525;42.648;23.368;2022-10-16T00:10:38;12.50;;;8.43;;
10945;SDS011;5525;42.648;23.368;2022-10-16T00:13:06;10.65;;;7.68;;
10945;SDS011;5525;42.648;23.368;2022-10-16T00:15:33;11.13;;;8.25;;
10945;SDS011;5525;42.648;23.368;2022-10-16T00:18:02;10.02;;;7.47;;
10945;SDS011;5525;42.648;23.368;2022-10-16T00:20:31;10.88;;;7.47;;
10945;SDS011;5525;42.648;23.368;2022-10-16T00:23:01;11.43;;;8.65;;
10945;SDS011;5525;42.648;23.368;2022-10-16T00:25:30;11.95;;;8.20;;
10945;SDS011;5525;42.648;23.368;2022-10-16T00:27:58;11.88;;;8.25;;
10945;SDS011;5525;42.648;23.368;2022-10-16T00:30:26;11.75;;;8.18;;
10945;SDS011;5525;42.648;23.368;2022-10-16T00:32:54;13.00;;;8.05;;
10945;SDS011;5525;42.648;23.368;2022-10-16T00:35:21;11.15;;;7.78;;
10945;SDS011;5525;42.648;23.368;2022-10-16T00:37:49;12.10;;;8.13;;
10945;SDS011;5525;42.648;23.368;2022-10-16T00:40:16;11.68;;;8.35;;
10945;SDS011;5525;42.648;23.368;2022-10-16T00:42:43;12.25;;;8.20;;
10945;SDS011;5525;42.648;23.368;2022-10-16T00:45:10;14.02;;;8.52;;
10945;SDS011;5525;42.648;23.368;2022-10-16T00:47:38;15.57;;;9.85;;
10945;SDS011;5525;42.648;23.368;2022-10-16T00:50:10;14.13;;;9.27;;
10945;SDS011;5525;42.648;23.368;2022-10-16T00:52:44;12.02;;;8.45;;
10945;SDS011;5525;42.648;23.368;2022-10-16T00:55:15;11.93;;;8.10;;
10945;SDS011;5525;42.648;23.368;2022-10-16T00:57:42;9.63;;;7.60;;
10945;SDS011;5525;42.648;23.368;2022-10-16T01:00:12;13.60;;;7.68;;
10945;SDS011;5525;42.648;23.368;2022-10-16T01:02:42;11.50;;;8.50;;
10945;SDS011;5525;42.648;23.368;2022-10-16T01:05:09;11.60;;;8.55;;
10945;SDS011;5525;42.648;23.368;2022-10-16T01:07:38;11.05;;;7.90;;
10945;SDS011;5525;42.648;23.368;2022-10-16T01:10:17;11.43;;;7.55;;
10945;SDS011;5525;42.648;23.368;2022-10-16T01:12:54;11.73;;;8.00;;
10945;SDS011;5525;42.648;23.368;2022-10-16T01:15:26;12.52;;;8.00;;
10945;SDS011;5525;42.648;23.368;2022-10-16T01:17:57;12.57;;;8.20;;
10945;SDS011;5525;42.648;23.368;2022-10-16T01:20:30;12.13;;;8.65;;
10945;SDS011;5525;42.648;23.368;2022-10-16T01:23:05;12.77;;;8.95;;
10945;SDS011;5525;42.648;23.368;2022-10-16T01:28:45;12.40;;;8.90;;
10945;SDS011;5525;42.648;23.368;2022-10-16T01:31:19;11.27;;;8.50;;
10945;SDS011;5525;42.648;23.368;2022-10-16T01:33:51;11.48;;;8.35;;
10945;SDS011;5525;42.648;23.368;2022-10-16T01:36:25;12.38;;;9.10;;
10945;SDS011;5525;42.648;23.368;2022-10-16T01:38:56;11.25;;;7.45;;
10945;SDS011;5525;42.648;23.368;2022-10-16T01:41:28;10.63;;;7.60;;
10945;SDS011;5525;42.648;23.368;2022-10-16T01:44:02;11.07;;;7.80;;
10945;SDS011;5525;42.648;23.368;2022-10-16T01:46:32;9.38;;;7.15;;
10945;SDS011;5525;42.648;23.368;2022-10-16T01:49:02;8.43;;;6.63;;
10945;SDS011;5525;42.648;23.368;2022-10-16T01:51:30;9.93;;;7.40;;
10945;SDS011;5525;42.648;23.368;2022-10-16T01:53:59;8.57;;;7.05;;
10945;SDS011;5525;42.648;23.368;2022-10-16T01:56:28;9.15;;;7.63;;
10945;SDS011;5525;42.648;23.368;2022-10-16T01:58:57;10.70;;;7.10;;
10945;SDS011;5525;42.648;23.368;2022-10-16T02:01:29;7.47;;;6.00;;
10945;SDS011;5525;42.648;23.368;2022-10-16T02:04:01;8.98;;;6.03;;
10945;SDS011;5525;42.648;23.368;2022-10-16T02:06:39;7.10;;;5.68;;
10945;SDS011;5525;42.648;23.368;2022-10-16T02:09:06;5.88;;;5.18;;
10945;SDS011;5525;42.648;23.368;2022-10-16T02:11:33;7.53;;;5.88;;
10945;SDS011;5525;42.648;23.368;2022-10-16T02:14:01;7.35;;;5.20;;
10945;SDS011;5525;42.648;23.368;2022-10-16T02:16:37;5.72;;;5.18;;
10945;SDS011;5525;42.648;23.368;2022-10-16T02:19:06;7.70;;;5.80;;
10945;SDS011;5525;42.648;23.368;2022-10-16T02:21:36;9.52;;;6.10;;
10945;SDS011;5525;42.648;23.368;2022-10-16T02:24:10;7.30;;;5.85;;
10945;SDS011;5525;42.648;23.368;2022-10-16T02:26:44;7.70;;;6.47;;
10945;SDS011;5525;42.648;23.368;2022-10-16T02:29:16;8.55;;;6.55;;
10945;SDS011;5525;42.648;23.368;2022-10-16T02:31:50;7.63;;;6.55;;
10945;SDS011;5525;42.648;23.368;2022-10-16T02:34:22;6.68;;;5.63;;
10945;SDS011;5525;42.648;23.368;2022-10-16T02:36:52;7.90;;;6.55;;
10945;SDS011;5525;42.648;23.368;2022-10-16T02:39:20;8.15;;;6.00;;
10945;SDS011;5525;42.648;23.368;2022-10-16T02:41:47;9.50;;;7.28;;
10945;SDS011;5525;42.648;23.368;2022-10-16T02:44:15;10.48;;;8.23;;
10945;SDS011;5525;42.648;23.368;2022-10-16T02:46:41;11.65;;;7.95;;
10945;SDS011;5525;42.648;23.368;2022-10-16T02:49:10;8.60;;;7.10;;
10945;SDS011;5525;42.648;23.368;2022-10-16T02:51:36;9.75;;;7.47;;
10945;SDS011;5525;42.648;23.368;2022-10-16T02:54:03;9.43;;;8.00;;
10945;SDS011;5525;42.648;23.368;2022-10-16T02:56:30;12.63;;;8.05;;
10945;SDS011;5525;42.648;23.368;2022-10-16T02:58:57;10.75;;;7.88;;
10945;SDS011;5525;42.648;23.368;2022-10-16T03:01:24;10.10;;;7.82;;
10945;SDS011;5525;42.648;23.368;2022-10-16T03:03:51;10.80;;;8.20;;
10945;SDS011;5525;42.648;23.368;2022-10-16T03:06:19;10.27;;;7.82;;
10945;SDS011;5525;42.648;23.368;2022-10-16T03:08:46;10.70;;;7.70;;
10945;SDS011;5525;42.648;23.368;2022-10-16T03:11:13;9.82;;;8.00;;
10945;SDS011;5525;42.648;23.368;2022-10-16T03:13:40;9.57;;;7.63;;
10945;SDS011;5525;42.648;23.368;2022-10-16T03:16:07;9.32;;;7.40;;
10945;SDS011;5525;42.648;23.368;2022-10-16T03:18:34;9.98;;;6.47;;
10945;SDS011;5525;42.648;23.368;2022-10-16T03:21:01;7.90;;;6.45;;
10945;SDS011;5525;42.648;23.368;2022-10-16T03:23:29;9.25;;;5.85;;
10945;SDS011;5525;42.648;23.368;2022-10-16T03:25:56;7.60;;;5.72;;
10945;SDS011;5525;42.648;23.368;2022-10-16T03:28:23;10.73;;;7.28;;
10945;SDS011;5525;42.648;23.368;2022-10-16T03:30:49;7.97;;;5.90;;
10945;SDS011;5525;42.648;23.368;2022-10-16T03:33:16;8.13;;;6.72;;
10945;SDS011;5525;42.648;23.368;2022-10-16T03:35:43;8.07;;;6.40;;
10945;SDS011;5525;42.648;23.368;2022-10-16T03:38:18;8.57;;;6.30;;
10945;SDS011;5525;42.648;23.368;2022-10-16T03:40:46;11.00;;;6.82;;
10945;SDS011;5525;42.648;23.368;2022-10-16T03:43:13;9.32;;;6.47;;
10945;SDS011;5525;42.648;23.368;2022-10-16T03:45:40;7.57;;;6.70;;
10945;SDS011;5525;42.648;23.368;2022-10-16T03:48:07;8.35;;;6.53;;
10945;SDS011;5525;42.648;23.368;2022-10-16T03:50:35;7.35;;;6.10;;
10945;SDS011;5525;42.648;23.368;2022-10-16T03:53:02;8.60;;;6.35;;
10945;SDS011;5525;42.648;23.368;2022-10-16T03:55:29;10.18;;;6.55;;
10945;SDS011;5525;42.648;23.368;2022-10-16T03:57:58;7.22;;;6.50;;
10945;SDS011;5525;42.648;23.368;2022-10-16T04:00:25;9.23;;;6.40;;
10945;SDS011;5525;42.648;23.368;2022-10-16T04:02:52;10.52;;;7.47;;
10945;SDS011;5525;42.648;23.368;2022-10-16T04:05:19;10.60;;;9.20;;
10945;SDS011;5525;42.648;23.368;2022-10-16T04:07:46;8.48;;;7.10;;
10945;SDS011;5525;42.648;23.368;2022-10-16T04:10:12;8.82;;;6.43;;
10945;SDS011;5525;42.648;23.368;2022-10-16T04:12:39;9.60;;;6.45;;
10945;SDS011;5525;42.648;23.368;2022-10-16T04:15:08;9.82;;;6.13;;
10945;SDS011;5525;42.648;23.368;2022-10-16T04:17:36;10.32;;;7.20;;
10945;SDS011;5525;42.648;23.368;2022-10-16T04:20:03;10.15;;;6.78;;
10945;SDS011;5525;42.648;23.368;2022-10-16T04:22:31;7.57;;;6.72;;
10945;SDS011;5525;42.648;23.368;2022-10-16T04:24:58;9.68;;;8.02;;
10945;SDS011;5525;42.648;23.368;2022-10-16T04:27:25;9.48;;;6.90;;
10945;SDS011;5525;42.648;23.368;2022-10-16T04:29:52;14.13;;;7.07;;
10945;SDS011;5525;42.648;23.368;2022-10-16T04:32:20;10.32;;;7.60;;
10945;SDS011;5525;42.648;23.368;2022-10-16T04:34:47;9.73;;;7.15;;
10945;SDS011;5525;42.648;23.368;2022-10-16T04:37:14;12.23;;;7.40;;
10945;SDS011;5525;42.648;23.368;2022-10-16T04:39:41;8.55;;;7.28;;
10945;SDS011;5525;42.648;23.368;2022-10-16T04:42:08;10.88;;;8.70;;
10945;SDS011;5525;42.648;23.368;2022-10-16T04:44:34;15.65;;;9.77;;
10945;SDS011;5525;42.648;23.368;2022-10-16T04:47:01;10.63;;;8.00;;
10945;SDS011;5525;42.648;23.368;2022-10-16T04:49:31;14.68;;;9.43;;
10945;SDS011;5525;42.648;23.368;2022-10-16T04:51:58;10.80;;;8.63;;
10945;SDS011;5525;42.648;23.368;2022-10-16T04:54:25;14.30;;;9.30;;
10945;SDS011;5525;42.648;23.368;2022-10-16T04:56:52;17.73;;;10.45;;
10945;SDS011;5525;42.648;23.368;2022-10-16T04:59:19;15.75;;;8.98;;
10945;SDS011;5525;42.648;23.368;2022-10-16T05:01:47;14.98;;;9.98;;
10945;SDS011;5525;42.648;23.368;2022-10-16T05:04:15;14.75;;;9.50;;
10945;SDS011;5525;42.648;23.368;2022-10-16T05:06:44;15.45;;;9.82;;
10945;SDS011;5525;42.648;23.368;2022-10-16T05:09:11;14.88;;;9.82;;
10945;SDS011;5525;42.648;23.368;2022-10-16T05:11:37;14.73;;;9.52;;
10945;SDS011;5525;42.648;23.368;2022-10-16T05:14:04;12.02;;;8.82;;
10945;SDS011;5525;42.648;23.368;2022-10-16T05:16:31;13.02;;;9.35;;
10945;SDS011;5525;42.648;23.368;2022-10-16T05:18:58;15.73;;;10.10;;
10945;SDS011;5525;42.648;23.368;2022-10-16T05:21:25;11.50;;;8.90;;
10945;SDS011;5525;42.648;23.368;2022-10-16T05:23:54;14.90;;;9.10;;
10945;SDS011;5525;42.648;23.368;2022-10-16T05:26:21;13.40;;;8.90;;
10945;SDS011;5525;42.648;23.368;2022-10-16T05:28:49;23.05;;;14.57;;
10945;SDS011;5525;42.648;23.368;2022-10-16T05:31:16;16.10;;;11.60;;
10945;SDS011;5525;42.648;23.368;2022-10-16T05:33:43;15.77;;;11.13;;
10945;SDS011;5525;42.648;23.368;2022-10-16T05:36:10;10.15;;;8.00;;
10945;SDS011;5525;42.648;23.368;2022-10-16T05:38:37;14.95;;;9.15;;
10945;SDS011;5525;42.648;23.368;2022-10-16T05:41:05;15.15;;;10.00;;
10945;SDS011;5525;42.648;23.368;2022-10-16T05:43:32;12.55;;;9.90;;
10945;SDS011;5525;42.648;23.368;2022-10-16T05:46:00;10.68;;;8.55;;
10945;SDS011;5525;42.648;23.368;2022-10-16T05:48:29;11.30;;;8.63;;
10945;SDS011;5525;42.648;23.368;2022-10-16T05:50:57;10.73;;;8.27;;
10945;SDS011;5525;42.648;23.368;2022-10-16T05:53:24;11.23;;;8.82;;
10945;SDS011;5525;42.648;23.368;2022-10-16T05:55:53;12.38;;;8.88;;
10945;SDS011;5525;42.648;23.368;2022-10-16T05:58:22;8.45;;;7.45;;
10945;SDS011;5525;42.648;23.368;2022-10-16T06:00:52;10.40;;;7.93;;
10945;SDS011;5525;42.648;23.368;2022-10-16T06:03:20;9.43;;;7.43;;
10945;SDS011;5525;42.648;23.368;2022-10-16T06:05:47;8.93;;;7.50;;
10945;SDS011;5525;42.648;23.368;2022-10-16T06:08:14;7.55;;;6.78;;
10945;SDS011;5525;42.648;23.368;2022-10-16T06:10:41;10.23;;;7.50;;
10945;SDS011;5525;42.648;23.368;2022-10-16T06:13:08;8.25;;;7.28;;
10945;SDS011;5525;42.648;23.368;2022-10-16T06:15:37;8.65;;;6.65;;
10945;SDS011;5525;42.648;23.368;2022-10-16T06:18:06;10.43;;;7.05;;
10945;SDS011;5525;42.648;23.368;2022-10-16T06:20:33;8.55;;;7.35;;
10945;SDS011;5525;42.648;23.368;2022-10-16T06:23:01;11.65;;;8.32;;
10945;SDS011;5525;42.648;23.368;2022-10-16T06:25:29;7.55;;;6.55;;
10945;SDS011;5525;42.648;23.368;2022-10-16T06:27:56;10.70;;;6.88;;
10945;SDS011;5525;42.648;23.368;2022-10-16T06:30:23;15.65;;;8.60;;
10945;SDS011;5525;42.648;23.368;2022-10-16T06:32:51;8.32;;;7.15;;
10945;SDS011;5525;42.648;23.368;2022-10-16T06:35:18;9.55;;;6.65;;
10945;SDS011;5525;42.648;23.368;2022-10-16T06:37:45;7.82;;;6.43;;
10945;SDS011;5525;42.648;23.368;2022-10-16T06:40:13;8.77;;;6.57;;
10945;SDS011;5525;42.648;23.368;2022-10-16T06:42:42;8.02;;;6.43;;
10945;SDS011;5525;42.648;23.368;2022-10-16T06:45:10;7.55;;;6.30;;
10945;SDS011;5525;42.648;23.368;2022-10-16T06:47:37;8.32;;;6.82;;
10945;SDS011;5525;42.648;23.368;2022-10-16T06:50:06;8.85;;;6.75;;
10945;SDS011;5525;42.648;23.368;2022-10-16T06:52:33;8.60;;;6.15;;
10945;SDS011;5525;42.648;23.368;2022-10-16T06:55:01;7.80;;;6.38;;
10945;SDS011;5525;42.648;23.368;2022-10-16T06:57:28;7.88;;;6.53;;
10945;SDS011;5525;42.648;23.368;2022-10-16T06:59:55;8.23;;;6.78;;
10945;SDS011;5525;42.648;23.368;2022-10-16T07:02:23;9.50;;;6.95;;
10945;SDS011;5525;42.648;23.368;2022-10-16T07:04:50;10.63;;;6.85;;
10945;SDS011;5525;42.648;23.368;2022-10-16T07:07:19;10.75;;;8.07;;
10945;SDS011;5525;42.648;23.368;2022-10-16T07:09:46;11.23;;;7.03;;
10945;SDS011;5525;42.648;23.368;2022-10-16T07:12:13;9.80;;;7.07;;
10945;SDS011;5525;42.648;23.368;2022-10-16T07:14:40;9.40;;;7.57;;
10945;SDS011;5525;42.648;23.368;2022-10-16T07:17:07;8.75;;;7.13;;
10945;SDS011;5525;42.648;23.368;2022-10-16T07:19:34;11.95;;;8.32;;
10945;SDS011;5525;42.648;23.368;2022-10-16T07:22:01;11.02;;;8.35;;
10945;SDS011;5525;42.648;23.368;2022-10-16T07:24:29;12.90;;;8.32;;
10945;SDS011;5525;42.648;23.368;2022-10-16T07:26:56;13.18;;;8.48;;
10945;SDS011;5525;42.648;23.368;2022-10-16T07:29:23;10.43;;;9.32;;
10945;SDS011;5525;42.648;23.368;2022-10-16T07:31:50;15.98;;;10.23;;
10945;SDS011;5525;42.648;23.368;2022-10-16T07:34:17;11.90;;;8.27;;
10945;SDS011;5525;42.648;23.368;2022-10-16T07:36:47;20.48;;;9.73;;
10945;SDS011;5525;42.648;23.368;2022-10-16T07:39:14;13.27;;;8.45;;
10945;SDS011;5525;42.648;23.368;2022-10-16T07:41:43;11.57;;;8.68;;
10945;SDS011;5525;42.648;23.368;2022-10-16T07:44:10;10.85;;;9.13;;
10945;SDS011;5525;42.648;23.368;2022-10-16T07:46:37;10.38;;;9.27;;
10945;SDS011;5525;42.648;23.368;2022-10-16T07:49:04;13.30;;;9.27;;
10945;SDS011;5525;42.648;23.368;2022-10-16T07:51:31;17.23;;;9.95;;
10945;SDS011;5525;42.648;23.368;2022-10-16T07:53:59;14.55;;;9.07;;
10945;SDS011;5525;42.648;23.368;2022-10-16T07:56:26;14.18;;;9.40;;
10945;SDS011;5525;42.648;23.368;2022-10-16T07:58:54;12.82;;;9.02;;
10945;SDS011;5525;42.648;23.368;2022-10-16T08:01:22;19.58;;;11.25;;
10945;SDS011;5525;42.648;23.368;2022-10-16T08:03:49;15.73;;;9.20;;
10945;SDS011;5525;42.648;23.368;2022-10-16T08:06:17;12.63;;;9.80;;
10945;SDS011;5525;42.648;23.368;2022-10-16T08:08:45;11.05;;;8.70;;
10945;SDS011;5525;42.648;23.368;2022-10-16T08:11:13;14.27;;;9.55;;
10945;SDS011;5525;42.648;23.368;2022-10-16T08:13:40;15.32;;;8.93;;
10945;SDS011;5525;42.648;23.368;2022-10-16T08:16:09;13.75;;;8.02;;
10945;SDS011;5525;42.648;23.368;2022-10-16T08:18:36;9.85;;;7.65;;
10945;SDS011;5525;42.648;23.368;2022-10-16T08:21:04;9.05;;;7.55;;
10945;SDS011;5525;42.648;23.368;2022-10-16T08:23:32;9.15;;;7.68;;
10945;SDS011;5525;42.648;23.368;2022-10-16T08:26:01;8.88;;;7.65;;
10945;SDS011;5525;42.648;23.368;2022-10-16T08:28:29;8.80;;;7.45;;
10945;SDS011;5525;42.648;23.368;2022-10-16T08:30:56;8.60;;;7.10;;
10945;SDS011;5525;42.648;23.368;2022-10-16T08:33:33;10.52;;;6.10;;
10945;SDS011;5525;42.648;23.368;2022-10-16T08:36:01;9.15;;;6.78;;
10945;SDS011;5525;42.648;23.368;2022-10-16T08:38:28;8.30;;;6.53;;
10945;SDS011;5525;42.648;23.368;2022-10-16T08:40:56;12.68;;;6.78;;
10945;SDS011;5525;42.648;23.368;2022-10-16T08:43:40;6.57;;;5.90;;
10945;SDS011;5525;42.648;23.368;2022-10-16T08:46:22;5.82;;;5.25;;
10945;SDS011;5525;42.648;23.368;2022-10-16T08:49:05;9.20;;;5.40;;
10945;SDS011;5525;42.648;23.368;2022-10-16T08:51:37;6.38;;;4.65;;
10945;SDS011;5525;42.648;23.368;2022-10-16T08:54:05;5.15;;;4.65;;
10945;SDS011;5525;42.648;23.368;2022-10-16T08:56:42;3.63;;;3.05;;
10945;SDS011;5525;42.648;23.368;2022-10-16T08:59:10;4.50;;;3.75;;
10945;SDS011;5525;42.648;23.368;2022-10-16T09:01:40;5.40;;;4.30;;
10945;SDS011;5525;42.648;23.368;2022-10-16T09:04:19;6.55;;;4.25;;
10945;SDS011;5525;42.648;23.368;2022-10-16T09:07:01;5.35;;;4.57;;
10945;SDS011;5525;42.648;23.368;2022-10-16T09:09:44;5.60;;;4.50;;
10945;SDS011;5525;42.648;23.368;2022-10-16T09:12:22;5.85;;;4.57;;
10945;SDS011;5525;42.648;23.368;2022-10-16T09:14:58;5.90;;;4.20;;
10945;SDS011;5525;42.648;23.368;2022-10-16T09:17:37;6.63;;;3.67;;
10945;SDS011;5525;42.648;23.368;2022-10-16T09:23:19;5.00;;;3.70;;
10945;SDS011;5525;42.648;23.368;2022-10-16T09:25:51;4.55;;;3.70;;
10945;SDS011;5525;42.648;23.368;2022-10-16T09:28:19;3.88;;;3.40;;
10945;SDS011;5525;42.648;23.368;2022-10-16T09:30:49;4.20;;;3.78;;
10945;SDS011;5525;42.648;23.368;2022-10-16T09:33:18;5.47;;;3.60;;
10945;SDS011;5525;42.648;23.368;2022-10-16T09:35:50;5.75;;;3.92;;
10945;SDS011;5525;42.648;23.368;2022-10-16T09:38:23;6.93;;;4.03;;
10945;SDS011;5525;42.648;23.368;2022-10-16T09:40:53;5.10;;;3.90;;
10945;SDS011;5525;42.648;23.368;2022-10-16T09:43:22;4.72;;;3.78;;
10945;SDS011;5525;42.648;23.368;2022-10-16T09:45:53;5.68;;;3.70;;
10945;SDS011;5525;42.648;23.368;2022-10-16T09:48:21;3.92;;;3.53;;
10945;SDS011;5525;42.648;23.368;2022-10-16T09:51:00;5.05;;;3.47;;
10945;SDS011;5525;42.648;23.368;2022-10-16T09:53:41;4.43;;;3.10;;
10945;SDS011;5525;42.648;23.368;2022-10-16T09:56:10;3.95;;;3.55;;
10945;SDS011;5525;42.648;23.368;2022-10-16T09:58:42;5.15;;;3.63;;
10945;SDS011;5525;42.648;23.368;2022-10-16T10:01:12;4.15;;;3.65;;
10945;SDS011;5525;42.648;23.368;2022-10-16T10:03:41;4.75;;;3.40;;
10945;SDS011;5525;42.648;23.368;2022-10-16T10:06:21;3.97;;;3.45;;
10945;SDS011;5525;42.648;23.368;2022-10-16T10:08:55;5.10;;;3.63;;
10945;SDS011;5525;42.648;23.368;2022-10-16T10:11:39;3.78;;;3.47;;
10945;SDS011;5525;42.648;23.368;2022-10-16T10:16:43;5.22;;;3.83;;
10945;SDS011;5525;42.648;23.368;2022-10-16T10:19:12;6.35;;;3.55;;
10945;SDS011;5525;42.648;23.368;2022-10-16T10:21:43;3.95;;;3.55;;
10945;SDS011;5525;42.648;23.368;2022-10-16T10:24:10;7.40;;;3.47;;
10945;SDS011;5525;42.648;23.368;2022-10-16T10:26:40;7.07;;;3.80;;
10945;SDS011;5525;42.648;23.368;2022-10-16T10:29:14;4.18;;;3.72;;
10945;SDS011;5525;42.648;23.368;2022-10-16T10:31:50;5.80;;;3.78;;
10945;SDS011;5525;42.648;23.368;2022-10-16T10:34:33;3.95;;;3.45;;
10945;SDS011;5525;42.648;23.368;2022-10-16T10:37:23;6.10;;;3.80;;
10945;SDS011;5525;42.648;23.368;2022-10-16T10:40:08;4.10;;;3.70;;
10945;SDS011;5525;42.648;23.368;2022-10-16T10:42:44;4.35;;;3.58;;
10945;SDS011;5525;42.648;23.368;2022-10-16T10:45:18;4.25;;;3.85;;
10945;SDS011;5525;42.648;23.368;2022-10-16T10:48:03;5.35;;;3.72;;
10945;SDS011;5525;42.648;23.368;2022-10-16T10:50:41;4.40;;;4.00;;
10945;SDS011;5525;42.648;23.368;2022-10-16T10:53:18;4.38;;;3.38;;
10945;SDS011;5525;42.648;23.368;2022-10-16T10:55:52;3.80;;;3.50;;
10945;SDS011;5525;42.648;23.368;2022-10-16T10:58:32;4.25;;;3.10;;
10945;SDS011;5525;42.648;23.368;2022-10-16T11:01:09;3.22;;;2.97;;
10945;SDS011;5525;42.648;23.368;2022-10-16T11:03:59;3.90;;;3.42;;
10945;SDS011;5525;42.648;23.368;2022-10-16T11:06:42;3.58;;;3.28;;
10945;SDS011;5525;42.648;23.368;2022-10-16T11:09:17;3.67;;;3.30;;
10945;SDS011;5525;42.648;23.368;2022-10-16T11:11:48;3.33;;;3.03;;
10945;SDS011;5525;42.648;23.368;2022-10-16T11:14:21;2.95;;;2.20;;
10945;SDS011;5525;42.648;23.368;2022-10-16T11:16:53;3.10;;;2.78;;
10945;SDS011;5525;42.648;23.368;2022-10-16T11:19:26;8.43;;;2.90;;
10945;SDS011;5525;42.648;23.368;2022-10-16T11:22:01;3.08;;;2.40;;
10945;SDS011;5525;42.648;23.368;2022-10-16T11:24:37;4.85;;;2.60;;
10945;SDS011;5525;42.648;23.368;2022-10-16T11:27:14;4.68;;;2.38;;
10945;SDS011;5525;42.648;23.368;2022-10-16T11:29:47;2.83;;;2.58;;
10945;SDS011;5525;42.648;23.368;2022-10-16T11:32:22;2.42;;;2.22;;
10945;SDS011;5525;42.648;23.368;2022-10-16T11:34:58;2.55;;;2.35;;
10945;SDS011;5525;42.648;23.368;2022-10-16T11:37:30;3.83;;;2.60;;
10945;SDS011;5525;42.648;23.368;2022-10-16T11:40:05;4.00;;;2.45;;
10945;SDS011;5525;42.648;23.368;2022-10-16T11:42:46;3.55;;;2.58;;
10945;SDS011;5525;42.648;23.368;2022-10-16T11:45:24;4.22;;;2.90;;
10945;SDS011;5525;42.648;23.368;2022-10-16T11:48:00;2.90;;;2.60;;
10945;SDS011;5525;42.648;23.368;2022-10-16T11:50:31;2.72;;;2.28;;
10945;SDS011;5525;42.648;23.368;2022-10-16T11:53:05;3.00;;;2.70;;
10945;SDS011;5525;42.648;23.368;2022-10-16T11:55:42;3.10;;;2.50;;
10945;SDS011;5525;42.648;23.368;2022-10-16T11:58:13;6.10;;;2.70;;
10945;SDS011;5525;42.648;23.368;2022-10-16T12:00:51;2.80;;;2.47;;
10945;SDS011;5525;42.648;23.368;2022-10-16T12:03:26;3.42;;;2.40;;
10945;SDS011;5525;42.648;23.368;2022-10-16T12:06:01;4.88;;;2.60;;
10945;SDS011;5525;42.648;23.368;2022-10-16T12:08:38;3.00;;;2.38;;
10945;SDS011;5525;42.648;23.368;2022-10-16T12:11:19;4.68;;;2.65;;
10945;SDS011;5525;42.648;23.368;2022-10-16T12:13:50;3.60;;;2.53;;
10945;SDS011;5525;42.648;23.368;2022-10-16T12:16:21;3.70;;;2.55;;
10945;SDS011;5525;42.648;23.368;2022-10-16T12:18:50;3.13;;;2.60;;
10945;SDS011;5525;42.648;23.368;2022-10-16T12:21:38;6.97;;;3.10;;
10945;SDS011;5525;42.648;23.368;2022-10-16T12:24:06;3.05;;;2.63;;
10945;SDS011;5525;42.648;23.368;2022-10-16T12:26:50;3.17;;;2.55;;
10945;SDS011;5525;42.648;23.368;2022-10-16T12:29:23;3.00;;;2.53;;
10945;SDS011;5525;42.648;23.368;2022-10-16T12:31:58;2.97;;;2.33;;
10945;SDS011;5525;42.648;23.368;2022-10-16T12:34:27;2.72;;;2.53;;
10945;SDS011;5525;42.648;23.368;2022-10-16T12:36:56;7.03;;;6.43;;
10945;SDS011;5525;42.648;23.368;2022-10-16T12:39:36;3.97;;;2.60;;
10945;SDS011;5525;42.648;23.368;2022-10-16T12:42:17;3.35;;;2.70;;
10945;SDS011;5525;42.648;23.368;2022-10-16T12:44:48;2.92;;;2.60;;
10945;SDS011;5525;42.648;23.368;2022-10-16T12:47:20;4.88;;;4.32;;
10945;SDS011;5525;42.648;23.368;2022-10-16T12:49:49;3.88;;;3.40;;
10945;SDS011;5525;42.648;23.368;2022-10-16T12:52:28;3.65;;;2.90;;
10945;SDS011;5525;42.648;23.368;2022-10-16T12:55:03;4.50;;;2.90;;
10945;SDS011;5525;42.648;23.368;2022-10-16T12:57:38;3.22;;;2.90;;
10945;SDS011;5525;42.648;23.368;2022-10-16T13:00:18;4.30;;;2.80;;
10945;SDS011;5525;42.648;23.368;2022-10-16T13:02:57;3.20;;;2.90;;
10945;SDS011;5525;42.648;23.368;2022-10-16T13:05:48;4.22;;;2.80;;
10945;SDS011;5525;42.648;23.368;2022-10-16T13:08:35;3.08;;;2.72;;
10945;SDS011;5525;42.648;23.368;2022-10-16T13:11:15;3.10;;;2.72;;
10945;SDS011;5525;42.648;23.368;2022-10-16T13:14:01;3.25;;;2.85;;
10945;SDS011;5525;42.648;23.368;2022-10-16T13:16:44;4.68;;;2.80;;
10945;SDS011;5525;42.648;23.368;2022-10-16T13:19:21;4.60;;;2.90;;
10945;SDS011;5525;42.648;23.368;2022-10-16T13:21:59;4.22;;;2.67;;
10945;SDS011;5525;42.648;23.368;2022-10-16T13:24:42;4.40;;;2.90;;
10945;SDS011;5525;42.648;23.368;2022-10-16T13:27:23;5.25;;;2.80;;
10945;SDS011;5525;42.648;23.368;2022-10-16T13:30:02;3.53;;;3.05;;
10945;SDS011;5525;42.648;23.368;2022-10-16T13:32:39;4.07;;;2.65;;
10945;SDS011;5525;42.648;23.368;2022-10-16T13:35:18;3.28;;;2.97;;
10945;SDS011;5525;42.648;23.368;2022-10-16T13:37:47;2.70;;;2.50;;
10945;SDS011;5525;42.648;23.368;2022-10-16T13:40:18;2.67;;;2.47;;
10945;SDS011;5525;42.648;23.368;2022-10-16T13:42:47;4.78;;;2.88;;
10945;SDS011;5525;42.648;23.368;2022-10-16T13:45:20;2.70;;;2.50;;
10945;SDS011;5525;42.648;23.368;2022-10-16T13:47:48;2.72;;;2.50;;
10945;SDS011;5525;42.648;23.368;2022-10-16T13:50:16;2.85;;;2.65;;
10945;SDS011;5525;42.648;23.368;2022-10-16T13:52:44;3.33;;;2.33;;
10945;SDS011;5525;42.648;23.368;2022-10-16T13:55:12;4.53;;;2.67;;
10945;SDS011;5525;42.648;23.368;2022-10-16T13:57:39;3.38;;;2.70;;
10945;SDS011;5525;42.648;23.368;2022-10-16T14:00:22;3.20;;;2.80;;
10945;SDS011;5525;42.648;23.368;2022-10-16T14:02:52;3.35;;;2.60;;
10945;SDS011;5525;42.648;23.368;2022-10-16T14:05:23;5.75;;;2.97;;
10945;SDS011;5525;42.648;23.368;2022-10-16T14:07:51;3.20;;;2.90;;
10945;SDS011;5525;42.648;23.368;2022-10-16T14:10:21;3.10;;;2.60;;
10945;SDS011;5525;42.648;23.368;2022-10-16T14:12:57;9.40;;;2.90;;
10945;SDS011;5525;42.648;23.368;2022-10-16T14:15:28;3.13;;;2.72;;
10945;SDS011;5525;42.648;23.368;2022-10-16T14:17:56;6.05;;;2.60;;
10945;SDS011;5525;42.648;23.368;2022-10-16T14:20:25;3.22;;;2.80;;
10945;SDS011;5525;42.648;23.368;2022-10-16T14:23:01;4.18;;;2.38;;
10945;SDS011;5525;42.648;23.368;2022-10-16T14:25:30;4.20;;;2.60;;
10945;SDS011;5525;42.648;23.368;2022-10-16T14:27:59;2.60;;;2.40;;
10945;SDS011;5525;42.648;23.368;2022-10-16T14:30:30;4.38;;;2.30;;
10945;SDS011;5525;42.648;23.368;2022-10-16T14:33:00;3.67;;;2.65;;
10945;SDS011;5525;42.648;23.368;2022-10-16T14:35:30;4.75;;;2.67;;
10945;SDS011;5525;42.648;23.368;2022-10-16T14:37:58;3.67;;;2.40;;
10945;SDS011;5525;42.648;23.368;2022-10-16T14:40:27;4.30;;;2.50;;
10945;SDS011;5525;42.648;23.368;2022-10-16T14:42:56;3.60;;;2.30;;
10945;SDS011;5525;42.648;23.368;2022-10-16T14:45:24;4.05;;;2.17;;
10945;SDS011;5525;42.648;23.368;2022-10-16T14:47:57;5.72;;;2.83;;
10945;SDS011;5525;42.648;23.368;2022-10-16T14:50:27;3.83;;;2.83;;
10945;SDS011;5525;42.648;23.368;2022-10-16T14:52:54;3.28;;;2.97;;
10945;SDS011;5525;42.648;23.368;2022-10-16T14:55:21;3.60;;;2.70;;
10945;SDS011;5525;42.648;23.368;2022-10-16T14:57:48;4.72;;;2.75;;
10945;SDS011;5525;42.648;23.368;2022-10-16T15:00:17;5.32;;;3.08;;
10945;SDS011;5525;42.648;23.368;2022-10-16T15:02:46;3.88;;;2.60;;
10945;SDS011;5525;42.648;23.368;2022-10-16T15:05:17;3.38;;;2.50;;
10945;SDS011;5525;42.648;23.368;2022-10-16T15:07:47;6.38;;;2.60;;
10945;SDS011;5525;42.648;23.368;2022-10-16T15:10:15;4.85;;;2.80;;
10945;SDS011;5525;42.648;23.368;2022-10-16T15:12:44;4.28;;;2.90;;